Data for 01/28/2005

Time Sea-Level Adjusted Pressure Absolute Pressure Temperature Relative Humidity Dew Point   
(mb) (inHg) (mb) (inHg) (C) (F) (%) (C) (F)
00:05 1014 29.94 843 24.89 1.8 35.2 78 -1.7 29
00:10 1014 29.94 843 24.89 2.1 35.7 77 -1.6 29.2
00:15 1013 29.91 843 24.89 2.4 36.3 75 -1.6 29.2
00:20 1014 29.94 843 24.89 2.8 37 75 -1.3 29.7
00:25 1014 29.94 843 24.89 2.9 37.2 76 -1 30.2
00:30 1013 29.91 843 24.89 3.2 37.8 75 -0.9 30.4
00:35 1014 29.94 843 24.89 3.5 38.3 74 -0.6 30.9
00:40 1014 29.94 843 24.89 3.5 38.3 75 -0.6 31
00:45 1014 29.94 843 24.89 3.5 38.3 73 -0.8 30.6
00:50 1014 29.94 843 24.89 3.2 37.8 76 -0.6 30.9
00:55 1014 29.94 843 24.89 2.8 37 77 -0.8 30.6
01:00 1014 29.94 843 24.89 2.7 36.8 78 -0.8 30.6
01:05 1014 29.94 843 24.89 2.8 37 78 -0.8 30.6
01:10 1014 29.94 843 24.89 2.9 37.1 77 -0.8 30.5
01:15 1014 29.94 843 24.89 2.9 37.1 77 -0.7 30.7
01:20 1014 29.94 843 24.89 2.9 37.3 77 -0.8 30.6
01:25 1014 29.94 843 24.89 2.7 36.9 77 -0.8 30.5
01:30 1014 29.94 843 24.89 2.7 36.8 77 -0.9 30.4
01:35 1014 29.94 843 24.89 2.7 36.8 78 -0.8 30.6
01:40 1014 29.94 843 24.89 2.6 36.6 78 -1 30.3
01:45 1014 29.94 843 24.89 2.7 36.9 77 -1 30.3
01:50 1014 29.94 843 24.89 2.7 36.8 78 -0.8 30.6
01:55 1014 29.94 843 24.89 2.5 36.5 77 -1 30.1
02:00 1014 29.94 843 24.89 2.8 37 76 -1.1 30.1
02:05 1014 29.94 843 24.89 2.9 37.2 76 -1 30.2
02:10 1014 29.94 843 24.89 3 37.5 75 -1 30.1
02:15 1014 29.94 843 24.89 3.1 37.6 75 -0.8 30.5
02:20 1014 29.94 843 24.89 3 37.4 75 -0.9 30.3
02:25 1014 29.94 843 24.89 3 37.5 75 -0.9 30.3
02:30 1014 29.94 843 24.89 3.1 37.6 75 -0.9 30.3
02:35 1014 29.94 843 24.89 3.3 37.9 74 -0.9 30.4
02:40 1014 29.94 843 24.89 3.4 38.1 74 -0.8 30.5
02:45 1014 29.94 843 24.89 3.3 37.9 74 -0.9 30.4
02:50 1014 29.94 843 24.89 3.2 37.8 74 -0.9 30.4
02:55 1014 29.94 843 24.89 3.1 37.5 75 -0.9 30.4
03:00 1014 29.94 843 24.89 3.1 37.5 75 -0.9 30.4
03:05 1014 29.94 843 24.89 3.1 37.6 75 -0.9 30.4
03:10 1014 29.94 843 24.89 3.2 37.8 76 -0.6 30.9
03:15 1014 29.94 843 24.89 3.3 38 76 -0.5 31
03:20 1014 29.94 843 24.89 3.3 38 76 -0.6 30.9
03:25 1014 29.94 843 24.89 3.3 38 76 -0.5 31.1
03:30 1014 29.94 843 24.89 3.2 37.7 77 -0.4 31.3
03:35 1014 29.94 843 24.89 3 37.5 77 -0.6 30.9
03:40 1014 29.94 843 24.89 3.1 37.5 77 -0.5 31.1
03:45 1014 29.94 843 24.89 3.1 37.5 78 -0.5 31.1
03:50 1014 29.94 843 24.89 3.1 37.6 77 -0.5 31.1
03:55 1014 29.94 843 24.89 3.1 37.5 78 -0.4 31.3
04:00 1014 29.94 843 24.89 3.1 37.6 78 -0.3 31.4
04:05 1014 29.94 843 24.89 3.2 37.8 78 -0.3 31.4
04:10 1014 29.94 843 24.89 3.2 37.7 79 -0.2 31.7
04:15 1014 29.94 843 24.89 3.2 37.7 79 -0 31.9
04:20 1014 29.94 843 24.89 3.2 37.7 80 0.2 32.3
04:25 1014 29.94 844 24.92 2.9 37.2 84 0.4 32.7
04:30 1014 29.94 844 24.92 3 37.4 84 0.6 33.2
04:35 1014 29.94 844 24.92 3 37.5 86 0.9 33.6
04:40 1014 29.94 844 24.92 2.9 37.2 85 0.7 33.2
04:45 1014 29.94 844 24.92 3.1 37.6 85 0.8 33.5
04:50 1014 29.94 844 24.92 3.1 37.6 86 1 33.8
04:55 1014 29.94 844 24.92 2.9 37.3 88 1.1 34
05:00 1014 29.94 844 24.92 2.8 37 88 1 33.9
05:05 1014 29.94 844 24.92 2.9 37.1 88 1.1 33.9
05:10 1014 29.94 844 24.92 3 37.4 88 1.1 34.1
05:15 1014 29.94 844 24.92 2.9 37.1 89 1.2 34.2
05:20 1014 29.94 844 24.92 2.8 37 90 1.3 34.3
05:25 1014 29.94 844 24.92 2.6 36.6 92 1.4 34.4
05:30 1014 29.94 844 24.92 2.1 35.8 92 0.9 33.6
05:35 1014 29.94 844 24.92 2 35.6 92 0.8 33.4
05:40 1014 29.94 844 24.92 2.1 35.7 90 0.6 33.1
05:45 1014 29.94 844 24.92 2.1 35.7 89 0.5 32.8
05:50 1015 29.97 844 24.92 2.1 35.8 89 0.5 32.9
05:55 1015 29.97 844 24.92 2.2 35.9 89 0.6 33
06:00 1015 29.97 844 24.92 2.4 36.3 88 0.5 33
06:05 1015 29.97 844 24.92 2.4 36.4 88 0.7 33.2
06:10 1015 29.97 844 24.92 2.5 36.4 88 0.7 33.2
06:15 1015 29.97 844 24.92 2.4 36.4 88 0.7 33.2
06:20 1015 29.97 844 24.92 2.4 36.3 90 1 33.8
06:25 1015 29.97 844 24.92 2.2 36 91 0.9 33.7
06:30 1015 29.97 844 24.92 2.1 35.7 92 0.9 33.5
06:35 1015 29.97 844 24.92 1.8 35.3 93 0.8 33.4
06:40 1015 29.97 844 24.92 1.6 34.9 94 0.8 33.4
06:45 1015 29.97 844 24.92 1.7 35 94 0.8 33.5
06:50 1015 29.97 844 24.92 2.1 35.8 92 0.9 33.7
06:55 1015 29.97 844 24.92 2.5 36.5 91 1.1 34
07:00 1015 29.97 844 24.92 2.6 36.6 90 1.1 34.1
07:05 1015 29.97 844 24.92 2.4 36.4 91 1.1 34
07:10 1015 29.97 844 24.92 2.3 36.1 92 1 33.9
07:15 1015 29.97 844 24.92 2.1 35.9 92 1 33.8
07:20 1015 29.97 844 24.92 2.2 36 92 1 33.8
07:25 1015 29.97 844 24.92 2.3 36.2 91 1 33.9
07:30 1015 29.97 844 24.92 2.2 35.9 92 1 33.8
07:35 1015 29.97 844 24.92 2.1 35.8 92 1 33.7
07:40 1015 29.97 844 24.92 1.7 35.1 94 0.8 33.5
07:45 1015 29.97 844 24.92 1.5 34.7 94 0.7 33.3
07:50 1015 29.97 844 24.92 1.4 34.6 94 0.6 33.1
07:55 1015 29.97 844 24.92 1.6 34.8 94 0.7 33.2
08:00 1015 29.97 844 24.92 1.6 34.9 94 0.8 33.4
08:05 1015 29.97 844 24.92 1.6 34.8 94 0.8 33.4
08:10 1015 29.97 844 24.92 1.6 34.8 93 0.6 33.1
08:15 1015 29.97 844 24.92 1.8 35.2 92 0.7 33.2
08:20 1015 29.97 844 24.92 2 35.7 91 0.7 33.2
08:25 1015 29.97 844 24.92 2.2 36 90 0.7 33.3
08:30 1015 29.97 844 24.92 2.4 36.3 88 0.6 33
08:35 1015 29.97 844 24.92 2.5 36.5 87 0.6 33.1
08:40 1015 29.97 844 24.92 2.6 36.7 87 0.6 33.1
08:45 1015 29.97 844 24.92 2.6 36.6 87 0.7 33.2
08:50 1015 29.97 844 24.92 2.5 36.6 88 0.8 33.4
08:55 1015 29.97 844 24.92 2.2 35.9 90 0.7 33.3
09:00 1015 29.97 844 24.92 1.9 35.5 90 0.5 32.9
09:05 1015 29.97 844 24.92 1.9 35.5 90 0.4 32.8
09:10 1015 29.97 844 24.92 2 35.5 90 0.5 32.9
09:15 1015 29.97 844 24.92 2 35.5 90 0.5 32.9
09:20 1015 29.97 844 24.92 2.1 35.7 90 0.6 33.1
09:25 1015 29.97 845 24.95 2.2 35.9 90 0.7 33.2
09:30 1015 29.97 845 24.95 2.3 36.1 89 0.6 33.1
09:35 1015 29.97 845 24.95 2.4 36.3 88 0.6 33.1
09:40 1015 29.97 845 24.95 2.5 36.4 88 0.6 33.1
09:45 1015 29.97 845 24.95 2.5 36.5 87 0.6 33.1
09:50 1015 29.97 845 24.95 2.6 36.6 88 0.8 33.5
09:55 1015 29.97 845 24.95 2.6 36.7 86 0.5 33
10:00 1016 30 845 24.95 2.7 36.8 86 0.6 33.1
10:05 1016 30 845 24.95 2.8 37 86 0.6 33.2
10:10 1016 30 845 24.95 2.9 37.2 85 0.6 33.2
10:15 1016 30 845 24.95 2.9 37.3 86 0.8 33.5
10:20 1016 30 845 24.95 3.1 37.6 86 1 33.9
10:25 1016 30 845 24.95 3.2 37.8 86 1.1 33.9
10:30 1016 30 845 24.95 3.1 37.6 86 1 33.8
10:35 1016 30 845 24.95 3.3 38 86 1.2 34.1
10:40 1016 30 845 24.95 3.5 38.2 86 1.4 34.4
10:45 1016 30 845 24.95 3.5 38.3 87 1.5 34.7
10:50 1016 30 845 24.95 3.8 38.8 86 1.6 34.9
10:55 1016 30 845 24.95 3.9 39 84 1.5 34.7
11:00 1016 30 845 24.95 4.2 39.6 83 1.5 34.8
11:05 1016 30 845 24.95 4.5 40.1 82 1.6 35
11:10 1016 30 845 24.95 4.4 39.8 81 1.4 34.6
11:15 1016 30 845 24.95 4.5 40.1 82 1.7 35.1
11:20 1016 30 845 24.95 4.8 40.7 81 1.8 35.3
11:25 1016 30 845 24.95 5.3 41.5 79 1.9 35.3
11:30 1016 30 845 24.95 5.3 41.6 76 1.5 34.7
11:35 1016 30 845 24.95 5.7 42.2 76 1.8 35.2
11:40 1016 30 845 24.95 5.9 42.6 75 1.7 35.1
11:45 1016 30 845 24.95 5.9 42.7 76 2 35.5
11:50 1016 30 845 24.95 5.9 42.6 73 1.4 34.6
11:55 1015 29.97 845 24.95 5.8 42.5 76 2 35.5
12:00 1015 29.97 845 24.95 5.8 42.4 75 1.7 35.1
12:05 1015 29.97 845 24.95 5.8 42.5 76 1.9 35.5
12:10 1015 29.97 845 24.95 5.7 42.3 77 2 35.6
12:15 1015 29.97 845 24.95 5.9 42.7 76 2 35.7
12:20 1015 29.97 845 24.95 5.6 42.1 77 1.9 35.4
12:25 1015 29.97 845 24.95 5.5 41.9 78 2 35.6
12:30 1015 29.97 844 24.92 6 42.8 74 1.8 35.3
12:35 1015 29.97 844 24.92 6.4 43.6 74 2.2 35.9
12:40 1015 29.97 844 24.92 6.4 43.5 75 2.3 36.1
12:45 1015 29.97 844 24.92 6.8 44.3 73 2.3 36.2
12:50 1015 29.97 844 24.92 7.3 45.1 70 2.2 36
12:55 1015 29.97 844 24.92 7.4 45.2 70 2.3 36.1
13:00 1015 29.97 844 24.92 7.2 45 70 2.2 35.9
13:05 1015 29.97 844 24.92 7.2 45 71 2.3 36.1
13:10 1015 29.97 844 24.92 7.2 44.9 72 2.4 36.3
13:15 1015 29.97 844 24.92 7.3 45.1 70 2.1 35.8
13:20 1015 29.97 844 24.92 7.1 44.8 70 2 35.6
13:25 1015 29.97 844 24.92 7 44.6 71 2.2 35.9
13:30 1015 29.97 844 24.92 7.1 44.8 71 2.2 35.9
13:35 1015 29.97 844 24.92 7.1 44.8 70 2.1 35.8
13:40 1015 29.97 844 24.92 6.9 44.4 73 2.3 36.2
13:45 1015 29.97 844 24.92 6.8 44.3 72 2.2 35.9
13:50 1015 29.97 844 24.92 6.8 44.2 72 2 35.7
13:55 1015 29.97 844 24.92 6.7 44 72 2 35.7
14:00 1015 29.97 844 24.92 6.7 44.1 71 1.8 35.2
14:05 1015 29.97 844 24.92 6.6 43.9 71 1.7 35.1
14:10 1015 29.97 844 24.92 6.4 43.5 75 2.4 36.3
14:15 1015 29.97 844 24.92 6.7 44.1 79 3.3 37.9
14:20 1015 29.97 844 24.92 6.9 44.4 75 2.7 36.9
14:25 1015 29.97 844 24.92 7.3 45.2 71 2.4 36.3
14:30 1015 29.97 844 24.92 7.4 45.4 68 2 35.6
14:35 1015 29.97 844 24.92 7.1 44.8 69 1.8 35.3
14:40 1015 29.97 844 24.92 7.1 44.7 67 1.3 34.3
14:45 1015 29.97 844 24.92 6.9 44.5 67 1.2 34.2
14:50 1015 29.97 844 24.92 6.6 43.8 68 1 33.8
14:55 1015 29.97 844 24.92 6.7 44.1 67 1.1 33.9
15:00 1015 29.97 844 24.92 7 44.7 66 1.1 34
15:05 1015 29.97 845 24.95 6.9 44.4 67 1.2 34.2
15:10 1015 29.97 845 24.95 7.1 44.9 66 1.1 34.1
15:15 1016 30 845 24.95 7.7 45.8 62 0.9 33.7
15:20 1016 30 845 24.95 8.6 47.4 59 1.1 34
15:25 1016 30 845 24.95 8.4 47 62 1.5 34.6
15:30 1016 30 845 24.95 8.3 46.9 62 1.6 34.8
15:35 1016 30 845 24.95 7.9 46.3 63 1.4 34.5
15:40 1016 30 845 24.95 7.7 45.8 63 1.2 34.2
15:45 1016 30 845 24.95 7.9 46.3 63 1.4 34.5
15:50 1016 30 845 24.95 8 46.4 64 1.7 35.1
15:55 1016 30 845 24.95 7.8 46 66 1.7 35.1
16:00 1016 30 845 24.95 7.8 46.1 64 1.5 34.6
16:05 1016 30 845 24.95 7.9 46.2 64 1.6 34.9
16:10 1016 30 845 24.95 7.9 46.1 64 1.6 34.9
16:15 1016 30 845 24.95 7.4 45.4 67 1.8 35.2
16:20 1016 30 845 24.95 7 44.6 68 1.5 34.6
16:25 1016 30 845 24.95 6.9 44.4 70 1.8 35.2
16:30 1016 30 845 24.95 6.6 43.9 70 1.6 35
16:35 1016 30 845 24.95 6.6 43.9 70 1.5 34.7
16:40 1016 30 845 24.95 6.6 43.9 70 1.5 34.7
16:45 1016 30 845 24.95 6.5 43.6 72 1.8 35.2
16:50 1016 30 845 24.95 6.5 43.6 72 1.8 35.3
16:55 1016 30 845 24.95 6.3 43.4 73 2 35.5
17:00 1016 30 845 24.95 6.4 43.5 73 2 35.5
17:05 1016 30 845 24.95 6.1 43 75 1.9 35.5
17:10 1016 30 845 24.95 5.8 42.5 76 1.9 35.4
17:15 1016 30 845 24.95 5.5 41.9 78 1.9 35.5
17:20 1016 30 845 24.95 5.4 41.8 77 1.8 35.2
17:25 1016 30 845 24.95 5.3 41.6 79 2 35.6
17:30 1016 30 845 24.95 5.1 41.1 82 2.2 35.9
17:35 1016 30 845 24.95 4.9 40.8 82 2.1 35.7
17:40 1016 30 845 24.95 5 41 81 2.1 35.7
17:45 1016 30 845 24.95 5.1 41.1 81 2.1 35.7
17:50 1016 30 845 24.95 4.9 40.8 82 2.1 35.7
17:55 1016 30 845 24.95 4.6 40.3 83 2 35.6
18:00 1016 30 845 24.95 4.4 40 84 1.9 35.5
18:05 1016 30 845 24.95 4.3 39.7 85 1.9 35.4
18:10 1016 30 845 24.95 4.3 39.7 78 0.8 33.5
18:15 1016 30 845 24.95 4.4 40 81 1.5 34.6
18:20 1016 30 845 24.95 4.4 39.9 81 1.4 34.6
18:25 1016 30 845 24.95 4.5 40 79 1.2 34.1
18:30 1016 30 845 24.95 4.6 40.2 78 1.1 34
18:35 1016 30 846 24.98 4.5 40.2 78 1.1 33.9
18:40 1016 30 846 24.98 4 39.2 81 1 33.8
18:45 1016 30 846 24.98 3.8 38.8 80 0.6 33.1
18:50 1016 30 846 24.98 3.9 39 78 0.4 32.7
18:55 1016 30 846 24.98 4.4 39.9 73 -0 31.9
19:00 1016 30 846 24.98 4.7 40.4 71 -0.1 31.9
19:05 1016 30 846 24.98 4.8 40.6 72 0.1 32.2
19:10 1017 30.03 846 24.98 4.5 40.1 75 0.4 32.7
19:15 1017 30.03 846 24.98 4.1 39.4 77 0.4 32.7
19:20 1017 30.03 846 24.98 3.8 38.9 76 0 32.1
19:25 1017 30.03 846 24.98 4 39.2 74 -0.2 31.6
19:30 1017 30.03 846 24.98 4.2 39.6 74 -0.1 31.9
19:35 1017 30.03 846 24.98 4.3 39.8 73 -0 32
19:40 1017 30.03 846 24.98 3.8 38.8 75 -0.2 31.7
19:45 1017 30.03 846 24.98 3.9 39 74 -0.4 31.4
19:50 1017 30.03 846 24.98 4.1 39.3 73 -0.3 31.5
19:55 1017 30.03 846 24.98 4.3 39.8 72 -0.3 31.5
20:00 1017 30.03 846 24.98 4.3 39.7 72 -0.3 31.5
20:05 1017 30.03 846 24.98 4.2 39.6 72 -0.5 31.1
20:10 1017 30.03 846 24.98 4.3 39.7 72 -0.4 31.4
20:15 1017 30.03 846 24.98 4 39.2 74 -0.3 31.5
20:20 1017 30.03 846 24.98 4 39.2 73 -0.5 31.2
20:25 1017 30.03 846 24.98 4 39.3 73 -0.4 31.3
20:30 1017 30.03 846 24.98 4 39.3 72 -0.5 31.2
20:35 1017 30.03 846 24.98 4 39.2 72 -0.5 31.1
20:40 1017 30.03 846 24.98 3.9 39 72 -0.7 30.7
20:45 1017 30.03 846 24.98 4 39.2 71 -0.7 30.7
20:50 1017 30.03 846 24.98 4.1 39.3 71 -0.7 30.7
20:55 1017 30.03 846 24.98 4.1 39.4 71 -0.7 30.8
21:00 1017 30.03 846 24.98 3.9 39 72 -0.7 30.8
21:05 1017 30.03 846 24.98 3.7 38.7 74 -0.5 31
21:10 1017 30.03 846 24.98 3.7 38.6 73 -0.7 30.7
21:15 1017 30.03 846 24.98 3.8 38.9 72 -0.8 30.6
21:20 1017 30.03 846 24.98 3.8 38.8 72 -0.8 30.6
21:25 1017 30.03 846 24.98 3.8 38.8 71 -1 30.2
21:30 1017 30.03 846 24.98 4 39.2 70 -0.9 30.4
21:35 1017 30.03 846 24.98 4 39.1 71 -0.9 30.5
21:40 1017 30.03 846 24.98 4 39.1 71 -0.8 30.5
21:45 1017 30.03 846 24.98 3.9 39 72 -0.8 30.5
21:50 1017 30.03 846 24.98 3.9 39 72 -0.8 30.6
21:55 1017 30.03 846 24.98 3.7 38.7 73 -0.7 30.7
22:00 1017 30.03 846 24.98 3.5 38.3 75 -0.6 31
22:05 1017 30.03 846 24.98 3.3 37.9 76 -0.5 31.1
22:10 1017 30.03 846 24.98 2.4 36.4 82 -0.4 31.3
22:15 1017 30.03 847 25.01 2.1 35.7 82 -0.8 30.6
22:20 1017 30.03 847 25.01 2.3 36.2 80 -0.9 30.4
22:25 1017 30.03 847 25.01 2.6 36.6 79 -0.7 30.7
22:30 1017 30.03 847 25.01 2.5 36.5 79 -0.7 30.7
22:35 1017 30.03 847 25.01 2.7 36.8 77 -0.9 30.4
22:40 1017 30.03 847 25.01 3.1 37.5 75 -0.9 30.3
22:45 1017 30.03 847 25.01 3.1 37.5 74 -1.1 30.1
22:50 1017 30.03 847 25.01 3 37.4 74 -1.2 29.8
22:55 1017 30.03 847 25.01 2.9 37.3 74 -1.2 29.9
23:00 1017 30.03 847 25.01 2.8 37 75 -1.2 29.9
23:05 1018 30.06 847 25.01 2.7 36.9 75 -1.2 29.8
23:10 1018 30.06 847 25.01 2.7 36.9 75 -1.2 29.9
23:15 1018 30.06 847 25.01 2.5 36.5 76 -1.3 29.6
23:20 1018 30.06 847 25.01 2.4 36.3 76 -1.4 29.5
23:25 1018 30.06 847 25.01 2.3 36.2 76 -1.5 29.3
23:30 1018 30.06 847 25.01 2.2 36 77 -1.4 29.4
23:35 1018 30.06 847 25.01 2 35.6 76 -1.8 28.8
23:40 1018 30.06 847 25.01 2 35.5 76 -1.9 28.6
23:45 1018 30.06 847 25.01 1.9 35.5 76 -1.9 28.6
23:50 1018 30.06 847 25.01 1.7 35.1 77 -1.8 28.7
23:55 1018 30.06 847 25.01 1.5 34.7 77 -2.1 28.2
24:00 1018 30.06 847 25.01 1.6 35 75 -2.3 27.9